createdAt,value
2023-04-09T00:00:47.336Z,2.93
2023-04-09T00:01:48.935Z,2.90
2023-04-09T00:02:50.743Z,2.96
2023-04-09T00:03:52.376Z,2.91
2023-04-09T00:04:53.931Z,2.96
2023-04-09T00:05:56.126Z,2.88
2023-04-09T00:06:57.597Z,2.86
2023-04-09T00:07:59.159Z,2.88
2023-04-09T00:09:00.793Z,2.85
2023-04-09T00:10:02.332Z,2.83
2023-04-09T00:11:04.145Z,2.81
2023-04-09T00:12:05.803Z,2.80
2023-04-09T00:13:07.356Z,2.82
2023-04-09T00:14:08.888Z,2.86
2023-04-09T00:15:15.082Z,2.84
2023-04-09T00:16:22.426Z,2.85
2023-04-09T00:17:24.050Z,2.90
2023-04-09T00:18:25.663Z,2.85
2023-04-09T00:19:27.235Z,2.82
2023-04-09T00:20:28.838Z,2.85
2023-04-09T00:21:30.419Z,2.83
2023-04-09T00:22:31.949Z,2.84
2023-04-09T00:23:34.251Z,2.87
2023-04-09T00:24:35.853Z,2.88
2023-04-09T00:25:37.460Z,2.88
2023-04-09T00:26:38.974Z,2.91
2023-04-09T00:27:40.632Z,3.02
2023-04-09T00:28:42.308Z,3.06
2023-04-09T00:29:43.853Z,3.13
2023-04-09T00:30:45.473Z,3.08
2023-04-09T00:31:47.009Z,3.09
2023-04-09T00:32:48.886Z,3.06
2023-04-09T00:33:50.605Z,3.06
2023-04-09T00:34:52.141Z,3.06
2023-04-09T00:35:53.966Z,2.98
2023-04-09T00:36:55.756Z,2.97
2023-04-09T00:37:57.363Z,3.04
2023-04-09T00:38:59.034Z,3.01
2023-04-09T00:40:00.932Z,3.12
2023-04-09T00:41:02.525Z,3.08
2023-04-09T00:42:04.244Z,3.04
2023-04-09T00:43:05.803Z,3.03
2023-04-09T00:44:07.410Z,3.18
2023-04-09T00:45:09.351Z,3.10
2023-04-09T00:46:11.298Z,3.03
2023-04-09T00:47:13.054Z,2.98
2023-04-09T00:48:15.399Z,3.03
2023-04-09T00:49:17.003Z,2.95
2023-04-09T00:50:19.638Z,2.93
2023-04-09T00:51:21.097Z,2.98
2023-04-09T00:52:23.465Z,2.98
2023-04-09T00:53:25.543Z,3.00
2023-04-09T00:54:27.617Z,3.03
2023-04-09T00:55:29.246Z,2.99
2023-04-09T00:56:30.956Z,2.91
2023-04-09T00:57:32.608Z,2.91
2023-04-09T00:58:34.165Z,2.96
2023-04-09T00:59:35.944Z,2.95
2023-04-09T01:00:37.831Z,2.90
2023-04-09T01:01:39.457Z,2.90
2023-04-09T01:02:41.542Z,2.90
2023-04-09T01:03:43.417Z,2.88
2023-04-09T01:04:45.406Z,2.90
2023-04-09T01:05:54.756Z,2.86
2023-04-09T01:07:05.032Z,2.94
2023-04-09T01:08:15.209Z,2.87
2023-04-09T01:09:37.814Z,2.85
2023-04-09T01:11:24.589Z,2.84
2023-04-09T01:12:36.799Z,2.83
2023-04-09T01:14:03.869Z,2.85
2023-04-09T01:15:08.856Z,2.88
2023-04-09T01:16:13.010Z,2.93
2023-04-09T01:17:51.208Z,2.97
2023-04-09T01:18:58.278Z,2.96
2023-04-09T01:20:19.224Z,2.95
2023-04-09T01:21:23.485Z,2.87
2023-04-09T01:22:50.273Z,2.89
2023-04-09T01:24:14.099Z,2.92
2023-04-09T01:25:38.081Z,2.93
2023-04-09T01:26:59.875Z,2.91
2023-04-09T01:28:45.780Z,2.96
2023-04-09T01:29:51.089Z,2.98
2023-04-09T01:30:57.683Z,2.95
2023-04-09T01:32:01.040Z,2.89
2023-04-09T01:33:03.635Z,2.87
2023-04-09T01:34:05.780Z,2.87
2023-04-09T01:35:08.986Z,2.98
2023-04-09T01:36:11.006Z,2.96
2023-04-09T01:37:13.697Z,2.99
2023-04-09T01:38:15.567Z,2.89
2023-04-09T01:39:17.386Z,2.89
2023-04-09T01:40:19.118Z,2.86
2023-04-09T01:41:21.843Z,2.90
2023-04-09T01:42:25.368Z,3.03
2023-04-09T01:43:27.699Z,3.02
2023-04-09T01:44:29.617Z,3.03
2023-04-09T01:45:31.801Z,3.04
2023-04-09T01:46:33.686Z,2.93
2023-04-09T01:47:35.548Z,2.87
2023-04-09T01:48:37.477Z,2.88
2023-04-09T01:49:40.734Z,2.92
2023-04-09T01:50:42.385Z,2.95
2023-04-09T01:51:44.391Z,2.94
2023-04-09T01:52:46.018Z,2.88
2023-04-09T01:53:49.144Z,2.88
2023-04-09T01:54:50.723Z,2.86
2023-04-09T01:55:52.368Z,2.92
2023-04-09T01:56:53.871Z,2.91
2023-04-09T01:57:55.659Z,2.94
2023-04-09T01:58:57.248Z,2.96
2023-04-09T01:59:59.105Z,2.97
2023-04-09T02:01:04.138Z,2.99
2023-04-09T02:02:12.637Z,2.97
2023-04-09T02:03:18.736Z,2.98
2023-04-09T02:04:24.868Z,3.04
2023-04-09T02:05:29.317Z,3.08
2023-04-09T02:06:40.588Z,3.09
2023-04-09T02:07:45.093Z,3.07
2023-04-09T02:08:47.469Z,3.11
2023-04-09T02:09:49.567Z,3.04
2023-04-09T02:10:55.523Z,3.12
2023-04-09T02:11:59.650Z,3.13
2023-04-09T02:13:01.639Z,3.09
2023-04-09T02:14:04.353Z,3.09
2023-04-09T02:15:07.253Z,3.08
2023-04-09T02:16:11.390Z,3.08
2023-04-09T02:17:13.149Z,3.11
2023-04-09T02:18:28.590Z,3.06
2023-04-09T02:19:41.855Z,2.98
2023-04-09T02:20:43.463Z,2.97
2023-04-09T02:21:45.869Z,3.00
2023-04-09T02:22:47.540Z,2.99
2023-04-09T02:23:49.327Z,3.03
2023-04-09T02:24:50.951Z,2.97
2023-04-09T02:25:53.413Z,2.96
2023-04-09T02:26:55.059Z,2.98
2023-04-09T02:27:56.595Z,2.98
2023-04-09T02:28:58.076Z,2.99
2023-04-09T02:29:59.582Z,3.00
2023-04-09T02:31:01.151Z,2.99
2023-04-09T02:32:02.716Z,2.99
2023-04-09T02:33:04.360Z,2.97
2023-04-09T02:34:05.934Z,2.98
2023-04-09T02:35:07.850Z,3.02
2023-04-09T02:36:13.371Z,3.01
2023-04-09T02:37:15.415Z,3.04
2023-04-09T02:38:17.018Z,3.01
2023-04-09T02:39:18.865Z,3.05
2023-04-09T02:40:20.487Z,3.03
2023-04-09T02:41:22.104Z,2.96
2023-04-09T02:42:23.717Z,2.97
2023-04-09T02:43:25.397Z,2.96
2023-04-09T02:44:26.985Z,2.96
2023-04-09T02:45:28.877Z,2.98
2023-04-09T02:46:30.737Z,2.97
2023-04-09T02:47:32.300Z,2.95
2023-04-09T02:48:34.123Z,2.96
2023-04-09T02:49:35.729Z,2.97
2023-04-09T02:50:37.569Z,2.90
2023-04-09T02:51:39.169Z,2.88
2023-04-09T02:52:40.807Z,2.91
2023-04-09T02:53:42.498Z,2.89
2023-04-09T02:54:44.037Z,2.91
2023-04-09T02:55:45.724Z,2.90
2023-04-09T02:56:47.282Z,2.93
2023-04-09T02:57:49.005Z,2.89
2023-04-09T02:58:53.952Z,2.88
2023-04-09T02:59:55.882Z,2.91
2023-04-09T03:00:57.497Z,2.91
2023-04-09T03:01:59.205Z,2.88
2023-04-09T03:03:01.121Z,2.87
2023-04-09T03:04:03.154Z,2.86
2023-04-09T03:05:05.436Z,2.87
2023-04-09T03:06:06.942Z,2.85
2023-04-09T03:07:08.670Z,2.84
2023-04-09T03:08:10.239Z,2.86
2023-04-09T03:09:11.764Z,2.84
2023-04-09T03:10:13.567Z,2.85
2023-04-09T03:11:15.835Z,2.83
2023-04-09T03:12:17.425Z,2.84
2023-04-09T03:13:19.041Z,2.83
2023-04-09T03:14:20.593Z,2.81
2023-04-09T03:15:22.139Z,2.78
2023-04-09T03:16:25.283Z,2.81
2023-04-09T03:17:27.339Z,2.92
2023-04-09T03:18:28.897Z,2.88
2023-04-09T03:19:31.353Z,2.89
2023-04-09T03:20:32.991Z,2.86
2023-04-09T03:21:34.596Z,2.88
2023-04-09T03:22:37.724Z,2.89
2023-04-09T03:23:42.784Z,2.95
2023-04-09T03:24:44.310Z,3.01
2023-04-09T03:25:45.926Z,3.03
2023-04-09T03:26:50.562Z,3.07
2023-04-09T03:27:52.599Z,3.11
2023-04-09T03:29:03.346Z,2.98
2023-04-09T03:30:05.494Z,2.96
2023-04-09T03:31:14.138Z,2.89
2023-04-09T03:32:18.967Z,2.87
2023-04-09T03:33:20.833Z,2.83
2023-04-09T03:34:26.414Z,2.80
2023-04-09T03:35:30.953Z,2.82
2023-04-09T03:36:34.629Z,2.80
2023-04-09T03:37:44.897Z,2.79
2023-04-09T03:38:51.899Z,2.76
2023-04-09T03:40:02.142Z,2.77
2023-04-09T03:41:05.688Z,2.75
2023-04-09T03:42:08.702Z,2.74
2023-04-09T03:43:20.657Z,2.73
2023-04-09T03:44:26.177Z,2.76
2023-04-09T03:45:49.936Z,2.82
2023-04-09T03:46:56.995Z,2.89
2023-04-09T03:47:59.359Z,2.90
2023-04-09T03:49:01.030Z,2.92
2023-04-09T03:50:11.375Z,2.88
2023-04-09T03:51:27.188Z,2.80
2023-04-09T03:52:32.264Z,2.79
2023-04-09T03:53:41.813Z,2.77
2023-04-09T03:54:43.565Z,2.77
2023-04-09T03:55:50.637Z,2.77
2023-04-09T03:56:58.048Z,2.81
2023-04-09T03:58:00.234Z,2.83
2023-04-09T03:59:06.565Z,2.91
2023-04-09T04:00:13.382Z,2.95
2023-04-09T04:01:46.981Z,2.98
2023-04-09T04:02:49.365Z,2.97
2023-04-09T04:03:53.783Z,2.98
2023-04-09T04:05:00.734Z,2.99
2023-04-09T04:06:06.836Z,3.01
2023-04-09T04:07:32.736Z,2.89
2023-04-09T04:08:40.924Z,2.85
2023-04-09T04:09:42.666Z,2.88
2023-04-09T04:10:47.503Z,2.89
2023-04-09T04:11:52.889Z,2.97
2023-04-09T04:12:56.930Z,2.98
2023-04-09T04:14:09.160Z,2.89
2023-04-09T04:15:11.153Z,2.88
2023-04-09T04:16:18.978Z,2.78
2023-04-09T04:17:20.680Z,2.73
2023-04-09T04:18:22.941Z,2.71
2023-04-09T04:19:26.974Z,2.70
2023-04-09T04:20:29.695Z,2.69
2023-04-09T04:21:39.713Z,2.67
2023-04-09T04:22:41.674Z,2.65
2023-04-09T04:23:43.322Z,2.62
2023-04-09T04:24:52.960Z,2.60
2023-04-09T04:25:58.062Z,2.57
2023-04-09T04:27:09.792Z,2.58
2023-04-09T04:28:11.445Z,2.62
2023-04-09T04:29:16.375Z,2.61
2023-04-09T04:30:28.638Z,2.66
2023-04-09T04:31:35.496Z,2.68
2023-04-09T04:32:37.290Z,2.68
2023-04-09T04:33:43.405Z,2.75
2023-04-09T04:34:50.127Z,2.79
2023-04-09T04:36:08.772Z,2.67
2023-04-09T04:37:14.409Z,2.72
2023-04-09T04:38:16.203Z,2.68
2023-04-09T04:39:17.860Z,2.62
2023-04-09T04:40:33.409Z,2.63
2023-04-09T04:41:36.515Z,2.71
2023-04-09T04:42:51.953Z,2.71
2023-04-09T04:43:53.780Z,2.76
2023-04-09T04:44:57.852Z,2.82
2023-04-09T04:46:11.397Z,2.86
2023-04-09T04:47:13.832Z,2.88
2023-04-09T04:48:15.492Z,2.92
2023-04-09T04:49:17.100Z,2.91
2023-04-09T04:50:22.077Z,2.96
2023-04-09T04:51:36.871Z,2.89
2023-04-09T04:52:44.460Z,2.96
2023-04-09T04:53:46.343Z,3.02
2023-04-09T04:54:48.986Z,2.97
2023-04-09T04:55:55.544Z,3.01
2023-04-09T04:57:01.484Z,3.00
2023-04-09T04:58:12.922Z,2.94
2023-04-09T04:59:22.060Z,2.92
2023-04-09T05:00:32.692Z,2.91
2023-04-09T05:01:37.109Z,2.83
2023-04-09T05:02:43.143Z,2.81
2023-04-09T05:03:53.578Z,2.88
2023-04-09T05:05:09.028Z,2.87
2023-04-09T05:06:16.330Z,2.84
2023-04-09T05:07:20.024Z,2.84
2023-04-09T05:08:28.172Z,2.86
2023-04-09T05:09:31.347Z,2.84
2023-04-09T05:10:46.852Z,2.86
2023-04-09T05:11:48.602Z,2.89
2023-04-09T05:12:54.028Z,2.90
2023-04-09T05:14:03.621Z,2.88
2023-04-09T05:15:05.867Z,2.86
2023-04-09T05:16:07.673Z,2.89
2023-04-09T05:17:11.141Z,2.93
2023-04-09T05:18:18.527Z,2.88
2023-04-09T05:19:20.086Z,2.99
2023-04-09T05:20:21.974Z,2.99
2023-04-09T05:21:37.269Z,2.97
2023-04-09T05:22:39.374Z,3.05
2023-04-09T05:23:42.685Z,3.01
2023-04-09T05:24:44.250Z,3.08
2023-04-09T05:25:46.092Z,3.13
2023-04-09T05:26:58.871Z,3.14
2023-04-09T05:28:00.884Z,3.17
2023-04-09T05:29:03.072Z,3.17
2023-04-09T05:30:04.967Z,3.20
2023-04-09T05:31:12.812Z,3.19
2023-04-09T05:32:20.190Z,3.24
2023-04-09T05:33:21.816Z,3.19
2023-04-09T05:34:23.574Z,3.27
2023-04-09T05:35:27.859Z,3.35
2023-04-09T05:36:29.403Z,3.34
2023-04-09T05:37:31.249Z,3.29
2023-04-09T05:38:33.045Z,3.32
2023-04-09T05:39:34.649Z,3.43
2023-04-09T05:40:36.940Z,3.52
2023-04-09T05:41:41.943Z,3.52
2023-04-09T05:43:02.967Z,3.69
2023-04-09T05:44:13.099Z,3.69
2023-04-09T05:45:14.998Z,3.89
2023-04-09T05:46:23.106Z,3.79
2023-04-09T05:47:25.493Z,3.84
2023-04-09T05:48:39.934Z,4.10
2023-04-09T05:49:41.524Z,4.19
2023-04-09T05:50:55.100Z,4.43
2023-04-09T05:51:59.914Z,4.72
2023-04-09T05:53:03.983Z,4.76
2023-04-09T05:54:12.502Z,4.78
2023-04-09T05:55:14.270Z,4.81
2023-04-09T05:56:23.394Z,4.95
2023-04-09T05:57:30.398Z,5.07
2023-04-09T05:58:35.018Z,5.12
2023-04-09T05:59:36.595Z,5.44
2023-04-09T06:00:38.220Z,5.73
2023-04-09T06:01:39.793Z,6.53
2023-04-09T06:02:41.514Z,6.85
2023-04-09T06:03:43.661Z,7.09
2023-04-09T06:04:45.570Z,7.47
2023-04-09T06:05:49.856Z,7.83
2023-04-09T06:06:51.785Z,8.27
2023-04-09T06:07:53.360Z,8.62
2023-04-09T06:08:55.393Z,8.67
2023-04-09T06:09:57.021Z,9.10
2023-04-09T06:10:58.838Z,9.58
2023-04-09T06:12:00.802Z,9.36
2023-04-09T06:13:02.365Z,9.60
2023-04-09T06:14:04.628Z,9.81
2023-04-09T06:15:06.657Z,9.51
2023-04-09T06:16:08.969Z,9.83
2023-04-09T06:17:10.587Z,10.47
2023-04-09T06:18:12.272Z,10.58
2023-04-09T06:19:16.315Z,10.56
2023-04-09T06:20:17.971Z,11.06
2023-04-09T06:21:19.515Z,10.82
2023-04-09T06:22:21.101Z,10.90
2023-04-09T06:23:22.639Z,10.88
2023-04-09T06:24:24.278Z,11.06
2023-04-09T06:25:26.081Z,11.54
2023-04-09T06:26:27.662Z,11.16
2023-04-09T06:27:29.256Z,11.65
2023-04-09T06:28:31.543Z,11.16
2023-04-09T06:29:33.211Z,11.15
2023-04-09T06:30:36.824Z,10.12
2023-04-09T06:31:38.723Z,10.95
2023-04-09T06:32:50.972Z,9.84
2023-04-09T06:33:56.191Z,9.50
2023-04-09T06:34:58.159Z,9.46
2023-04-09T06:35:59.817Z,8.50
2023-04-09T06:37:01.449Z,8.57
2023-04-09T06:38:03.042Z,8.60
2023-04-09T06:39:04.695Z,10.39
2023-04-09T06:40:08.823Z,10.17
2023-04-09T06:41:12.708Z,10.60
2023-04-09T06:42:14.354Z,11.31
2023-04-09T06:43:25.940Z,11.93
2023-04-09T06:44:27.742Z,12.13
2023-04-09T06:45:29.482Z,12.87
2023-04-09T06:46:31.362Z,12.53
2023-04-09T06:47:32.944Z,12.13
2023-04-09T06:48:34.781Z,11.77
2023-04-09T06:49:36.718Z,11.67
2023-04-09T06:50:38.356Z,12.53
2023-04-09T06:51:39.891Z,12.19
2023-04-09T06:52:41.939Z,12.47
2023-04-09T06:53:43.624Z,12.24
2023-04-09T06:54:46.075Z,11.70
2023-04-09T06:55:47.530Z,12.14
2023-04-09T06:56:49.081Z,10.63
2023-04-09T06:57:50.865Z,10.26
2023-04-09T06:58:52.486Z,11.50
2023-04-09T06:59:53.984Z,12.88
2023-04-09T07:00:55.819Z,12.74
2023-04-09T07:01:57.436Z,12.27
2023-04-09T07:02:59.213Z,12.18
2023-04-09T07:04:01.514Z,11.66
2023-04-09T07:05:04.207Z,12.33
2023-04-09T07:06:06.241Z,13.43
2023-04-09T07:07:07.796Z,12.94
2023-04-09T07:08:09.494Z,11.14
2023-04-09T07:09:11.055Z,10.39
2023-04-09T07:10:12.640Z,9.77
2023-04-09T07:11:16.957Z,9.37
2023-04-09T07:12:32.159Z,9.64
2023-04-09T07:13:33.737Z,11.22
2023-04-09T07:14:35.426Z,12.18
2023-04-09T07:15:36.979Z,12.09
2023-04-09T07:16:38.566Z,12.52
2023-04-09T07:17:40.262Z,12.64
2023-04-09T07:18:41.796Z,12.40
2023-04-09T07:19:43.388Z,12.78
2023-04-09T07:20:44.932Z,13.18
2023-04-09T07:21:46.431Z,13.91
2023-04-09T07:22:48.034Z,13.85
2023-04-09T07:23:49.551Z,13.82
2023-04-09T07:24:54.860Z,14.09
2023-04-09T07:25:56.722Z,14.95
2023-04-09T07:26:58.409Z,14.75
2023-04-09T07:28:00.060Z,14.62
2023-04-09T07:29:03.668Z,14.36
2023-04-09T07:30:05.857Z,14.52
2023-04-09T07:31:07.815Z,14.88
2023-04-09T07:32:09.526Z,14.24
2023-04-09T07:33:11.239Z,14.40
2023-04-09T07:34:12.828Z,15.04
2023-04-09T07:35:14.366Z,15.05
2023-04-09T07:36:16.093Z,15.64
2023-04-09T07:37:17.715Z,14.31
2023-04-09T07:38:19.301Z,13.85
2023-04-09T07:39:21.071Z,13.98
2023-04-09T07:40:22.710Z,14.03
2023-04-09T07:41:24.187Z,14.42
2023-04-09T07:42:25.819Z,12.64
2023-04-09T07:43:27.493Z,10.94
2023-04-09T07:44:29.244Z,10.25
2023-04-09T07:45:30.879Z,9.45
2023-04-09T07:46:32.424Z,11.01
2023-04-09T07:47:34.164Z,12.74
2023-04-09T07:48:35.924Z,13.66
2023-04-09T07:49:38.085Z,14.51
2023-04-09T07:50:39.681Z,15.63
2023-04-09T07:51:41.364Z,15.50
2023-04-09T07:52:43.008Z,15.70
2023-04-09T07:53:44.553Z,15.43
2023-04-09T07:54:46.108Z,15.48
2023-04-09T07:55:47.722Z,15.73
2023-04-09T07:56:49.428Z,13.39
2023-04-09T07:57:51.670Z,15.07
2023-04-09T07:58:53.596Z,14.92
2023-04-09T07:59:55.512Z,15.27
2023-04-09T08:00:57.142Z,15.13
2023-04-09T08:01:59.351Z,15.44
2023-04-09T08:03:02.126Z,15.90
2023-04-09T08:04:04.248Z,16.06
2023-04-09T08:05:06.564Z,16.57
2023-04-09T08:06:08.346Z,15.95
2023-04-09T08:07:09.918Z,14.33
2023-04-09T08:08:11.457Z,14.77
2023-04-09T08:09:13.009Z,13.28
2023-04-09T08:10:15.203Z,13.74
2023-04-09T08:11:18.417Z,13.93
2023-04-09T08:12:20.013Z,16.21
2023-04-09T08:13:24.136Z,15.51
2023-04-09T08:14:25.644Z,15.99
2023-04-09T08:15:27.400Z,16.30
2023-04-09T08:16:30.232Z,15.69
2023-04-09T08:17:31.934Z,14.16
2023-04-09T08:18:33.580Z,13.58
2023-04-09T08:19:35.901Z,15.08
2023-04-09T08:20:37.809Z,14.59
2023-04-09T08:21:42.984Z,14.94
2023-04-09T08:22:45.285Z,15.65
2023-04-09T08:23:46.823Z,16.25
2023-04-09T08:24:52.029Z,16.33
2023-04-09T08:25:53.565Z,16.94
2023-04-09T08:26:56.635Z,16.40
2023-04-09T08:27:58.172Z,16.54
2023-04-09T08:28:59.722Z,15.12
2023-04-09T08:30:02.416Z,14.39
2023-04-09T08:31:04.048Z,15.32
2023-04-09T08:32:06.094Z,15.95
2023-04-09T08:33:07.790Z,16.21
2023-04-09T08:34:09.573Z,15.04
2023-04-09T08:35:11.130Z,15.76
2023-04-09T08:36:12.814Z,16.11
2023-04-09T08:37:14.328Z,17.15
2023-04-09T08:38:16.311Z,16.64
2023-04-09T08:39:20.807Z,17.28
2023-04-09T08:40:22.788Z,17.35
2023-04-09T08:41:25.529Z,17.02
2023-04-09T08:42:27.618Z,17.39
2023-04-09T08:43:52.564Z,17.25
2023-04-09T08:44:51.890Z,17.92
2023-04-09T08:45:57.694Z,18.19
2023-04-09T08:47:00.010Z,17.88
2023-04-09T08:48:03.679Z,16.71
2023-04-09T08:49:05.572Z,16.09
2023-04-09T08:50:07.522Z,16.45
2023-04-09T08:51:09.196Z,17.18
2023-04-09T08:52:10.818Z,17.46
2023-04-09T08:53:12.431Z,17.70
2023-04-09T08:54:19.887Z,17.32
2023-04-09T08:55:22.416Z,17.69
2023-04-09T08:56:23.980Z,16.07
2023-04-09T08:57:25.486Z,14.39
2023-04-09T08:58:27.795Z,14.66
2023-04-09T08:59:29.538Z,15.58
2023-04-09T09:00:31.323Z,15.79
2023-04-09T09:01:33.327Z,16.38
2023-04-09T09:02:35.635Z,16.36
2023-04-09T09:03:47.511Z,17.11
2023-04-09T09:04:50.782Z,17.40
2023-04-09T09:05:52.287Z,17.15
2023-04-09T09:06:55.450Z,17.73
2023-04-09T09:07:58.729Z,15.94
2023-04-09T09:09:04.768Z,14.19
2023-04-09T09:10:07.137Z,15.15
2023-04-09T09:11:08.476Z,16.80
2023-04-09T09:12:10.092Z,17.87
2023-04-09T09:13:17.413Z,17.02
2023-04-09T09:14:19.790Z,16.71
2023-04-09T09:15:28.419Z,16.93
2023-04-09T09:16:31.277Z,17.01
2023-04-09T09:17:34.395Z,17.52
2023-04-09T09:18:42.070Z,17.10
2023-04-09T09:19:43.625Z,17.45
2023-04-09T09:20:45.447Z,17.21
2023-04-09T09:21:56.604Z,17.53
2023-04-09T09:22:58.280Z,18.34
2023-04-09T09:23:59.824Z,17.88
2023-04-09T09:25:01.605Z,17.14
2023-04-09T09:26:21.676Z,14.94
2023-04-09T09:27:39.257Z,13.80
2023-04-09T09:28:41.364Z,13.74
2023-04-09T09:29:44.908Z,14.32
2023-04-09T09:30:47.920Z,14.87
2023-04-09T09:31:55.595Z,15.52
2023-04-09T09:33:08.658Z,16.69
2023-04-09T09:34:10.485Z,15.83
2023-04-09T09:35:12.170Z,15.09
2023-04-09T09:36:15.973Z,13.79
2023-04-09T09:37:28.056Z,14.83
2023-04-09T09:38:32.334Z,15.54
2023-04-09T09:39:51.670Z,16.42
2023-04-09T09:40:53.319Z,16.94
2023-04-09T09:42:07.593Z,16.72
2023-04-09T09:43:09.312Z,17.73
2023-04-09T09:44:12.181Z,17.78
2023-04-09T09:45:20.403Z,18.12
2023-04-09T09:46:22.386Z,17.93
2023-04-09T09:47:25.290Z,17.28
2023-04-09T09:48:28.409Z,18.07
2023-04-09T09:49:30.325Z,18.03
2023-04-09T09:50:34.443Z,17.74
2023-04-09T09:51:37.473Z,17.43
2023-04-09T09:52:39.373Z,18.22
2023-04-09T09:53:46.566Z,16.95
2023-04-09T09:54:52.120Z,16.50
2023-04-09T09:55:53.881Z,16.56
2023-04-09T09:56:58.221Z,17.03
2023-04-09T09:58:03.793Z,16.23
2023-04-09T09:59:17.475Z,15.78
2023-04-09T10:00:23.807Z,16.65
2023-04-09T10:01:27.225Z,16.78
2023-04-09T10:02:32.920Z,15.31
2023-04-09T10:03:35.611Z,14.07
2023-04-09T10:04:38.004Z,13.36
2023-04-09T10:05:40.806Z,13.94
2023-04-09T10:06:43.953Z,12.98
2023-04-09T10:07:46.512Z,13.81
2023-04-09T10:08:49.285Z,14.75
2023-04-09T10:09:52.167Z,14.71
2023-04-09T10:10:53.937Z,14.71
2023-04-09T10:11:56.538Z,16.07
2023-04-09T10:12:59.063Z,15.73
2023-04-09T10:14:00.794Z,16.35
2023-04-09T10:15:05.016Z,15.83
2023-04-09T10:16:07.481Z,15.58
2023-04-09T10:17:08.983Z,15.59
2023-04-09T10:18:10.691Z,15.83
2023-04-09T10:19:15.328Z,16.61
2023-04-09T10:20:23.058Z,17.02
2023-04-09T10:21:38.811Z,16.91
2023-04-09T10:22:43.335Z,16.77
2023-04-09T10:23:46.008Z,16.89
2023-04-09T10:24:47.707Z,15.71
2023-04-09T10:25:49.355Z,14.41
2023-04-09T10:26:54.528Z,13.83
2023-04-09T10:28:00.370Z,12.92
2023-04-09T10:29:27.836Z,13.03
2023-04-09T10:30:36.545Z,12.41
2023-04-09T10:31:50.447Z,13.16
2023-04-09T10:32:53.260Z,14.74
2023-04-09T10:34:03.988Z,14.78
2023-04-09T10:35:06.920Z,15.61
2023-04-09T10:36:12.873Z,15.15
2023-04-09T10:37:17.013Z,14.10
2023-04-09T10:38:40.788Z,12.75
2023-04-09T10:39:47.247Z,12.92
2023-04-09T10:40:50.082Z,12.47
2023-04-09T10:41:52.943Z,13.17
2023-04-09T10:42:56.055Z,14.34
2023-04-09T10:43:57.739Z,15.35
2023-04-09T10:45:06.270Z,14.79
2023-04-09T10:46:25.897Z,14.55
2023-04-09T10:47:33.910Z,14.27
2023-04-09T10:48:35.740Z,14.71
2023-04-09T10:49:39.212Z,14.92
2023-04-09T10:50:43.701Z,13.49
2023-04-09T10:52:16.197Z,13.76
2023-04-09T10:53:25.408Z,13.62
2023-04-09T10:54:47.625Z,12.83
2023-04-09T10:55:53.399Z,12.74
2023-04-09T10:57:18.990Z,13.67
2023-04-09T10:58:20.618Z,14.47
2023-04-09T10:59:22.194Z,15.31
2023-04-09T11:00:23.728Z,15.91
2023-04-09T11:01:26.510Z,16.02
2023-04-09T11:02:40.244Z,15.96
2023-04-09T11:03:44.999Z,16.18
2023-04-09T11:05:07.330Z,14.63
2023-04-09T11:06:10.459Z,13.28
2023-04-09T11:07:13.246Z,12.80
2023-04-09T11:08:17.045Z,13.40
2023-04-09T11:09:18.598Z,14.14
2023-04-09T11:10:21.671Z,14.56
2023-04-09T11:11:26.804Z,15.50
2023-04-09T11:12:28.361Z,15.82
2023-04-09T11:13:31.561Z,14.37
2023-04-09T11:14:36.470Z,12.61
2023-04-09T11:15:39.116Z,12.84
2023-04-09T11:16:40.778Z,12.47
2023-04-09T11:17:43.135Z,12.14
2023-04-09T11:18:44.557Z,12.47
2023-04-09T11:19:46.673Z,13.25
2023-04-09T11:20:48.514Z,13.81
2023-04-09T11:21:50.185Z,14.46
2023-04-09T11:22:53.498Z,14.42
2023-04-09T11:23:55.181Z,13.53
2023-04-09T11:24:56.739Z,13.35
2023-04-09T11:25:58.501Z,13.56
2023-04-09T11:27:02.059Z,13.75
2023-04-09T11:28:05.049Z,14.22
2023-04-09T11:29:09.758Z,14.31
2023-04-09T11:30:11.648Z,13.76
2023-04-09T11:31:13.183Z,14.00
2023-04-09T11:32:14.860Z,13.84
2023-04-09T11:33:19.138Z,13.90
2023-04-09T11:34:21.471Z,14.18
2023-04-09T11:35:23.739Z,13.77
2023-04-09T11:36:27.066Z,13.12
2023-04-09T11:37:28.633Z,13.88
2023-04-09T11:38:31.362Z,13.66
2023-04-09T11:39:36.628Z,13.55
2023-04-09T11:40:51.517Z,13.30
2023-04-09T11:41:53.364Z,13.36
2023-04-09T11:42:56.236Z,12.44
2023-04-09T11:43:57.746Z,12.18
2023-04-09T11:44:59.597Z,11.73
2023-04-09T11:46:01.716Z,11.95
2023-04-09T11:47:03.457Z,12.14
2023-04-09T11:48:05.655Z,12.42
2023-04-09T11:49:07.642Z,12.28
2023-04-09T11:50:10.066Z,12.16
2023-04-09T11:51:11.469Z,12.02
2023-04-09T11:52:16.397Z,12.14
2023-04-09T11:53:18.834Z,12.13
2023-04-09T11:54:20.252Z,12.12
2023-04-09T11:55:29.371Z,12.52
2023-04-09T11:56:31.387Z,12.68
2023-04-09T11:57:46.774Z,12.89
2023-04-09T11:58:48.801Z,12.93
2023-04-09T11:59:50.353Z,12.80
2023-04-09T12:00:59.000Z,12.76
2023-04-09T12:02:00.674Z,12.55
2023-04-09T12:03:03.871Z,12.58
2023-04-09T12:04:06.951Z,12.55
2023-04-09T12:05:14.157Z,12.35
2023-04-09T12:06:20.643Z,12.63
2023-04-09T12:07:22.229Z,12.45
2023-04-09T12:08:24.987Z,12.13
2023-04-09T12:09:26.793Z,12.27
2023-04-09T12:10:29.717Z,12.35
2023-04-09T12:11:32.544Z,12.62
2023-04-09T12:12:41.395Z,12.65
2023-04-09T12:13:44.463Z,12.44
2023-04-09T12:14:47.461Z,12.46
2023-04-09T12:15:49.871Z,12.90
2023-04-09T12:16:52.523Z,12.78
2023-04-09T12:17:55.247Z,12.74
2023-04-09T12:18:56.814Z,12.38
2023-04-09T12:19:58.285Z,11.59
2023-04-09T12:21:01.340Z,11.58
2023-04-09T12:22:03.179Z,11.60
2023-04-09T12:23:05.853Z,11.66
2023-04-09T12:24:07.392Z,11.78
2023-04-09T12:25:09.287Z,11.39
2023-04-09T12:26:10.862Z,11.23
2023-04-09T12:27:12.472Z,11.18
2023-04-09T12:28:16.638Z,10.90
2023-04-09T12:29:20.609Z,10.81
2023-04-09T12:30:22.910Z,10.75
2023-04-09T12:31:24.489Z,10.99
2023-04-09T12:32:26.083Z,10.76
2023-04-09T12:33:27.725Z,10.92
2023-04-09T12:34:29.240Z,10.99
2023-04-09T12:35:31.042Z,11.01
2023-04-09T12:36:32.713Z,10.82
2023-04-09T12:37:34.254Z,11.34
2023-04-09T12:38:35.832Z,11.33
2023-04-09T12:39:37.379Z,11.66
2023-04-09T12:40:39.313Z,11.57
2023-04-09T12:41:40.844Z,11.34
2023-04-09T12:42:43.414Z,11.71
2023-04-09T12:43:45.057Z,12.26
2023-04-09T12:44:46.555Z,11.80
2023-04-09T12:45:48.058Z,11.80
2023-04-09T12:46:49.629Z,11.30
2023-04-09T12:47:51.215Z,10.96
2023-04-09T12:48:52.802Z,10.91
2023-04-09T12:49:54.717Z,10.99
2023-04-09T12:50:56.458Z,11.33
2023-04-09T12:51:57.984Z,11.14
2023-04-09T12:52:59.552Z,11.08
2023-04-09T12:54:03.919Z,10.93
2023-04-09T12:55:06.632Z,10.99
2023-04-09T12:56:08.596Z,11.03
2023-04-09T12:57:10.266Z,11.07
2023-04-09T12:58:12.024Z,11.57
2023-04-09T12:59:13.613Z,11.63
2023-04-09T13:00:16.623Z,11.68
2023-04-09T13:01:18.354Z,11.70
2023-04-09T13:02:21.473Z,11.53
2023-04-09T13:03:27.317Z,11.73
2023-04-09T13:04:29.289Z,11.55
2023-04-09T13:05:35.347Z,11.57
2023-04-09T13:06:36.936Z,11.70
2023-04-09T13:07:39.361Z,11.59
2023-04-09T13:08:42.369Z,11.62
2023-04-09T13:09:45.239Z,11.85
2023-04-09T13:10:47.008Z,12.07
2023-04-09T13:11:48.595Z,12.13
2023-04-09T13:12:51.384Z,11.85
2023-04-09T13:13:53.711Z,11.60
2023-04-09T13:14:55.636Z,11.48
2023-04-09T13:15:57.348Z,11.76
2023-04-09T13:16:59.080Z,11.85
2023-04-09T13:18:00.854Z,12.13
2023-04-09T13:19:02.380Z,12.05
2023-04-09T13:20:04.343Z,11.94
2023-04-09T13:21:06.484Z,12.06
2023-04-09T13:22:08.847Z,12.23
2023-04-09T13:23:10.503Z,12.02
2023-04-09T13:24:12.090Z,12.10
2023-04-09T13:25:15.024Z,12.19
2023-04-09T13:26:17.019Z,11.87
2023-04-09T13:27:18.798Z,11.89
2023-04-09T13:28:20.641Z,11.75
2023-04-09T13:29:23.031Z,11.70
2023-04-09T13:30:24.485Z,11.61
2023-04-09T13:31:26.260Z,11.76
2023-04-09T13:32:27.925Z,11.49
2023-04-09T13:33:29.530Z,11.57
2023-04-09T13:34:31.120Z,11.50
2023-04-09T13:35:32.802Z,11.53
2023-04-09T13:36:34.562Z,11.42
2023-04-09T13:37:36.192Z,11.31
2023-04-09T13:38:37.976Z,11.32
2023-04-09T13:39:39.529Z,11.17
2023-04-09T13:40:41.102Z,11.27
2023-04-09T13:41:42.692Z,11.07
2023-04-09T13:42:44.677Z,11.27
2023-04-09T13:43:46.443Z,10.97
2023-04-09T13:44:48.004Z,10.92
2023-04-09T13:45:49.815Z,10.73
2023-04-09T13:46:51.425Z,10.74
2023-04-09T13:47:53.836Z,10.84
2023-04-09T13:48:55.389Z,10.76
2023-04-09T13:49:56.907Z,10.83
2023-04-09T13:50:58.463Z,10.80
2023-04-09T13:52:00.218Z,10.78
2023-04-09T13:53:05.136Z,10.91
2023-04-09T13:54:08.526Z,10.91
2023-04-09T13:55:10.425Z,11.07
2023-04-09T13:56:11.949Z,11.11
2023-04-09T13:57:15.326Z,11.24
2023-04-09T13:58:17.264Z,11.22